Flight Number: EUR1175 Duration: 2:20
Departure: Madrid / Barajas (LEMD) at 08:30 Distance: 955 Nm
Arrival: Tenerife Norte (GCXO) at 10:50 Equipment: A321

Weather Information
Madrid / Barajas, Spain (LEMD) 40-27N 003-33W 582M Aug 19, 2018 - 05:00 AM EDT / 2018.08.19 0900 UTC
Wind: from the NNE (020 degrees) at 6 MPH (5 KT):0
Visibility: greater than 7 mile(s):0
Sky conditions: mostly clear Temperature: 75 F (24 C) Dew Point: 53 F (12 C) Relative Humidity: 46% Pressure (altimeter): 30.18 in. Hg (1022 hPa)
ob: LEMD 190900Z 02005KT 9999 FEW042 24/12 Q1022 NOSIG cycle: 9
Sunrise: 05:32 Sunset: 19:02 (UTC)

Tenerife / Los Rodeos, Spain (GCXO) 28-28N 016-19W 617M Aug 19, 2018 - 05:00 AM EDT / 2018.08.19 0900 UTC
Wind: from the NW (310 degrees) at 18 MPH (16 KT) (direction variable):0
Visibility: greater than 7 mile(s):0
Sky conditions: partly cloudy Temperature: 64 F (18 C) Dew Point: 57 F (14 C) Relative Humidity: 77% Pressure (altimeter): 30.09 in. Hg (1019 hPa)
ob: GCXO 190900Z 31016KT 280V340 9999 SCT013 18/14 Q1019 NOSIG cycle: 9
Sunrise: 06:39 Sunset: 19:37 (UTC)

TAF:2018/08/19 09:27 TAF GCXO 190800Z 1909/2009 31014KT 9999 BKN012 TX24/1915Z TN17/2005Z PROB40 TEMPO 1919/2009 3000 BCFG BKN004

Previous Pireps for this route
Date Aircraft Flight time Fuel used Landing rate On time
2012-10-28A32102.5416304-310No
2013-06-05A32102.5116238-344No
2013-10-29B7372.20200000No
2014-06-11A32102.2814963-193Yes
2014-07-15A3212.4194480No
2014-07-19A32102.3615014-185Yes
2014-10-12A3212.20170000No
2015-01-06A3212.53221550No
(pireps marked green are flown by you)

Route map